Terminal Aerodrome Forecast
Issued by NWS Twin Cities, MN

Home | Current Version | Previous Version | Text Only | Print | Product List | Glossary Off
Versions: 1 2 3 4 5 6 7 8 9 10 11 12 13 14 15 16

000
FTUS43 KMPX 271130
TAFSTC
TAF
KSTC 271130Z 2712/2812 26004KT P6SM BKN250
     FM271400 25007KT P6SM BKN150
     FM271800 23010KT P6SM BKN100
     FM280000 22005KT P6SM SCT200
     FM280900 25005KT P6SM BKN080=

USA.gov is the U.S. government's official web portal to all federal, state and local government web resources and services.